Time;durP1;ratioP1;P1;durP2;ratioP2;P2;SDS_P1;SDS_P2;PMS_P1;PMS_P2;Temp;Humidity;BMP_temperature;BMP_pressure;BME280_temperature;BME280_humidity;BME280_pressure;Samples;Min_cycle;Max_cycle;Signal;HPM_P1;HPM_P2
2021/08/02 00:00:33;;;;;;;2.97;2.40;;;26.20;56.80;;;;;;6089958;28;80971;-67
2021/08/02 00:03:33;;;;;;;2.42;2.20;;;26.10;56.30;;;;;;6091098;28;81167;-67
2021/08/02 00:06:34;;;;;;;2.45;2.25;;;26.20;56.10;;;;;;6089457;28;80165;-68
2021/08/02 00:09:35;;;;;;;3.92;2.10;;;26.20;55.90;;;;;;6088416;28;82756;-67
2021/08/02 00:12:36;;;;;;;2.70;2.40;;;26.10;56.30;;;;;;6088391;28;80500;-69
2021/08/02 00:15:36;;;;;;;2.53;2.20;;;26.10;55.80;;;;;;6090084;28;81589;-68
2021/08/02 00:18:36;;;;;;;2.60;2.40;;;26.10;55.90;;;;;;6089451;28;80439;-68
2021/08/02 00:21:37;;;;;;;2.40;2.20;;;26.10;55.90;;;;;;6086903;28;80696;-68
2021/08/02 00:24:38;;;;;;;2.55;2.35;;;26.10;56.00;;;;;;6087784;28;80896;-69
2021/08/02 00:27:38;;;;;;;2.55;2.17;;;26.10;56.50;;;;;;6086502;28;80966;-68
2021/08/02 00:30:38;;;;;;;2.78;2.40;;;26.10;56.30;;;;;;6086988;28;80594;-69
2021/08/02 00:33:39;;;;;;;3.10;2.17;;;26.20;55.90;;;;;;6086344;28;81316;-68
2021/08/02 00:36:39;;;;;;;2.70;2.20;;;26.10;55.80;;;;;;6087373;28;81027;-68
2021/08/02 00:39:40;;;;;;;3.10;2.60;;;26.10;55.60;;;;;;6087130;28;80404;-68
2021/08/02 00:42:41;;;;;;;2.65;2.30;;;26.10;56.00;;;;;;6085608;28;80419;-68
2021/08/02 00:45:41;;;;;;;2.10;1.98;;;26.10;56.40;;;;;;6086159;28;80308;-68
2021/08/02 00:48:42;;;;;;;2.50;2.28;;;26.10;55.50;;;;;;6085775;28;82274;-68
2021/08/02 00:51:42;;;;;;;3.00;2.00;;;26.10;55.70;;;;;;6087442;28;83124;-68
2021/08/02 00:54:44;;;;;;;3.47;2.13;;;26.10;55.80;;;;;;6084490;28;82541;-68
2021/08/02 00:57:46;;;;;;;2.83;2.50;;;26.10;55.90;;;;;;6082944;28;83108;-69
2021/08/02 01:00:47;;;;;;;4.30;2.60;;;26.10;55.50;;;;;;6086426;28;80410;-68
2021/08/02 01:03:47;;;;;;;4.47;1.98;;;26.20;56.00;;;;;;6087890;28;80543;-69
2021/08/02 01:06:48;;;;;;;2.38;2.13;;;26.20;56.90;;;;;;6087763;28;81483;-69
2021/08/02 01:09:49;;;;;;;2.67;2.47;;;26.20;56.40;;;;;;6086823;28;81409;-69
2021/08/02 01:12:50;;;;;;;2.78;2.08;;;26.20;55.60;;;;;;6084171;28;83903;-68
2021/08/02 01:15:52;;;;;;;3.38;2.17;;;26.20;56.10;;;;;;6085701;28;81659;-68
2021/08/02 01:18:52;;;;;;;1.92;1.83;;;26.20;55.60;;;;;;6083807;28;81814;-68
2021/08/02 01:21:55;;;;;;;2.10;1.90;;;26.20;55.60;;;;;;6084074;28;80832;-68
2021/08/02 01:24:58;;;;;;;2.65;1.90;;;26.20;55.60;;;;;;6087333;28;81103;-69
2021/08/02 01:28:02;;;;;;;2.10;1.90;;;26.20;55.30;;;;;;6084695;28;83512;-69
2021/08/02 01:31:04;;;;;;;2.03;1.90;;;26.20;55.30;;;;;;6085582;28;81627;-68
2021/08/02 01:34:13;;;;;;;4.43;2.38;;;26.10;55.10;;;;;;6082818;28;82328;-69
2021/08/02 01:37:14;;;;;;;2.05;1.90;;;26.10;55.10;;;;;;6085625;28;83012;-68
2021/08/02 01:40:15;;;;;;;3.03;2.40;;;26.10;55.30;;;;;;6085794;28;83189;-68
2021/08/02 01:43:17;;;;;;;3.05;2.70;;;26.10;54.80;;;;;;6086031;28;81533;-68
2021/08/02 01:46:22;;;;;;;3.87;2.43;;;26.10;55.20;;;;;;6085393;28;82378;-68
2021/08/02 01:49:24;;;;;;;3.00;2.42;;;26.10;54.80;;;;;;6090142;28;81583;-70
2021/08/02 01:52:26;;;;;;;2.75;2.47;;;26.10;54.70;;;;;;6088360;28;80333;-68
2021/08/02 01:55:26;;;;;;;3.47;2.38;;;26.10;54.60;;;;;;6082123;28;83317;-68
2021/08/02 01:58:28;;;;;;;2.45;2.25;;;26.10;55.30;;;;;;6064548;28;81688;-69
2021/08/02 02:01:32;;;;;;;2.60;2.40;;;26.00;54.60;;;;;;6066523;28;80826;-69
2021/08/02 02:04:33;;;;;;;2.70;2.17;;;26.10;54.70;;;;;;6064895;28;82793;-70
2021/08/02 02:07:35;;;;;;;4.00;2.53;;;26.10;54.90;;;;;;6064163;28;83422;-70
2021/08/02 02:10:50;;;;;;;5.10;2.53;;;26.10;54.80;;;;;;6063513;28;83425;-71
2021/08/02 02:13:52;;;;;;;2.55;2.35;;;26.10;54.40;;;;;;6062873;28;82727;-68
2021/08/02 02:16:53;;;;;;;4.00;2.67;;;26.10;54.80;;;;;;6062452;28;83376;-69
2021/08/02 02:19:56;;;;;;;4.93;2.63;;;26.10;54.30;;;;;;6063811;28;83385;-68
2021/08/02 02:22:57;;;;;;;3.83;2.30;;;26.10;53.80;;;;;;6063841;28;80424;-68
2021/08/02 02:25:57;;;;;;;2.45;2.22;;;26.10;54.30;;;;;;6063711;28;80567;-67
2021/08/02 02:28:58;;;;;;;3.20;2.10;;;26.10;54.30;;;;;;6078899;28;80921;-68
2021/08/02 02:31:59;;;;;;;1.92;1.83;;;26.10;54.30;;;;;;6063109;28;81678;-68
2021/08/02 02:34:59;;;;;;;2.53;2.33;;;26.10;54.30;;;;;;6065307;28;81313;-68
2021/08/02 02:38:00;;;;;;;3.47;2.30;;;26.10;54.30;;;;;;6065788;28;81299;-68
2021/08/02 02:41:02;;;;;;;5.32;3.13;;;26.00;54.10;;;;;;6078555;28;82470;-69
2021/08/02 02:44:07;;;;;;;3.40;2.50;;;26.00;53.50;;;;;;6062972;28;82880;-69
2021/08/02 02:47:07;;;;;;;3.67;2.70;;;26.10;54.10;;;;;;6080017;28;81387;-69
2021/08/02 02:50:08;;;;;;;4.13;2.88;;;26.00;53.90;;;;;;6064695;28;82207;-69
2021/08/02 02:53:09;;;;;;;2.88;2.63;;;26.00;53.60;;;;;;6064450;28;81260;-70
2021/08/02 02:56:11;;;;;;;3.42;2.35;;;26.00;53.80;;;;;;6063591;28;83296;-69
2021/08/02 02:59:12;;;;;;;5.10;3.35;;;26.10;53.90;;;;;;6061900;28;82654;-70
2021/08/02 03:02:13;;;;;;;3.78;2.70;;;25.90;53.50;;;;;;6062913;28;83747;-69
2021/08/02 03:05:14;;;;;;;4.50;3.20;;;26.00;53.90;;;;;;6061870;28;83176;-68
2021/08/02 03:08:16;;;;;;;3.05;2.80;;;25.90;53.60;;;;;;6079537;28;81675;-69
2021/08/02 03:11:17;;;;;;;10.95;3.33;;;26.00;54.00;;;;;;6063453;28;82314;-69
2021/08/02 03:14:17;;;;;;;4.68;3.92;;;26.00;53.80;;;;;;6062825;28;86010;-69
2021/08/02 03:17:18;;;;;;;5.72;4.05;;;25.90;53.60;;;;;;6063889;28;80282;-69
2021/08/02 03:20:18;;;;;;;5.65;3.50;;;25.90;53.80;;;;;;6062736;28;80593;-69
2021/08/02 03:23:19;;;;;;;7.90;4.43;;;25.90;53.80;;;;;;6065488;28;80467;-69
2021/08/02 03:26:19;;;;;;;4.93;4.05;;;25.90;53.70;;;;;;6063859;28;80725;-69
2021/08/02 03:29:21;;;;;;;4.90;4.45;;;25.90;53.90;;;;;;6065029;28;80701;-70
2021/08/02 03:32:22;;;;;;;10.00;4.93;;;25.80;53.60;;;;;;6060848;28;83309;-67
2021/08/02 03:35:22;;;;;;;6.05;4.53;;;25.70;53.60;;;;;;6064025;28;80721;-68
2021/08/02 03:38:23;;;;;;;5.90;5.00;;;25.70;53.80;;;;;;6065109;28;81195;-66
2021/08/02 03:41:23;;;;;;;6.22;5.05;;;25.80;53.70;;;;;;6062852;28;80305;-67
2021/08/02 03:44:24;;;;;;;6.50;4.60;;;25.70;54.40;;;;;;6064820;28;80738;-69
2021/08/02 03:47:25;;;;;;;9.20;5.82;;;25.80;54.00;;;;;;6065112;28;80290;-69
2021/08/02 03:50:26;;;;;;;12.05;6.90;;;25.70;53.70;;;;;;6062672;28;80894;-69
2021/08/02 03:53:26;;;;;;;6.68;5.25;;;25.80;54.10;;;;;;6063558;28;80331;-68
2021/08/02 03:56:27;;;;;;;21.15;6.68;;;25.80;54.00;;;;;;6060955;28;83077;-69
2021/08/02 03:59:28;;;;;;;5.60;4.65;;;25.80;53.70;;;;;;6062433;28;82510;-67
2021/08/02 04:02:28;;;;;;;6.75;5.18;;;25.80;54.10;;;;;;6064486;28;85145;-67
2021/08/02 04:05:29;;;;;;;7.10;4.80;;;25.80;54.10;;;;;;6062706;28;80157;-67
2021/08/02 04:08:30;;;;;;;9.15;4.88;;;25.80;54.10;;;;;;6060686;28;83460;-67
2021/08/02 04:11:30;;;;;;;7.63;4.78;;;25.80;53.90;;;;;;6062721;28;80614;-69
2021/08/02 04:14:31;;;;;;;7.43;5.25;;;25.80;53.60;;;;;;6063349;28;80549;-69
2021/08/02 04:17:31;;;;;;;9.27;5.90;;;25.80;53.80;;;;;;6086813;28;80945;-67
2021/08/02 04:20:32;;;;;;;8.18;5.45;;;25.70;53.60;;;;;;6091211;28;80814;-68
2021/08/02 04:23:32;;;;;;;6.47;4.53;;;25.70;53.60;;;;;;6088437;28;87383;-67
2021/08/02 04:26:33;;;;;;;8.18;4.80;;;25.70;53.90;;;;;;6087247;28;81029;-67
2021/08/02 04:29:33;;;;;;;11.93;4.65;;;25.70;54.00;;;;;;6089300;28;81253;-69
2021/08/02 04:32:34;;;;;;;10.63;5.95;;;25.70;54.10;;;;;;6087558;28;80951;-67
2021/08/02 04:35:34;;;;;;;6.95;4.95;;;25.70;54.10;;;;;;6085558;28;80553;-67
2021/08/02 04:38:35;;;;;;;5.82;4.53;;;25.70;54.00;;;;;;6083500;28;80855;-68
2021/08/02 04:41:35;;;;;;;8.10;6.00;;;25.70;54.30;;;;;;6086859;28;81204;-68
2021/08/02 04:44:36;;;;;;;7.20;6.03;;;25.60;53.80;;;;;;6086307;28;82649;-67
2021/08/02 04:47:36;;;;;;;8.95;6.53;;;25.50;53.90;;;;;;6090810;28;80616;-68
2021/08/02 04:50:38;;;;;;;6.78;5.97;;;25.50;54.00;;;;;;6087359;28;80528;-67
2021/08/02 04:53:38;;;;;;;8.52;4.82;;;25.50;54.10;;;;;;6092244;28;80281;-68
2021/08/02 04:56:39;;;;;;;7.88;5.15;;;25.50;54.30;;;;;;6086909;28;80338;-67
2021/08/02 04:59:40;;;;;;;10.77;6.28;;;25.70;54.20;;;;;;6086971;28;81417;-66
2021/08/02 05:02:40;;;;;;;10.52;5.13;;;25.60;54.10;;;;;;6089673;28;80484;-69
2021/08/02 05:05:41;;;;;;;11.45;4.72;;;25.60;54.20;;;;;;6088463;28;80226;-68
2021/08/02 05:08:41;;;;;;;6.95;4.45;;;25.70;54.80;;;;;;6089042;28;82809;-66
2021/08/02 05:11:42;;;;;;;6.57;4.93;;;25.80;54.90;;;;;;6085447;28;81074;-66
2021/08/02 05:14:42;;;;;;;9.60;4.50;;;25.70;54.60;;;;;;6087872;28;80586;-67
2021/08/02 05:17:43;;;;;;;12.15;5.03;;;25.80;54.90;;;;;;6087774;28;80522;-66
2021/08/02 05:20:43;;;;;;;5.00;3.90;;;25.80;54.80;;;;;;6086457;28;80422;-66
2021/08/02 05:23:44;;;;;;;7.25;4.10;;;25.80;54.80;;;;;;6089625;28;80205;-66
2021/08/02 05:26:44;;;;;;;8.05;4.72;;;25.80;54.70;;;;;;6094380;28;80892;-66
2021/08/02 05:29:45;;;;;;;9.85;4.55;;;25.80;54.60;;;;;;6093983;28;80468;-67
2021/08/02 05:32:45;;;;;;;9.50;5.30;;;25.80;54.70;;;;;;6089700;28;80726;-65
2021/08/02 05:35:46;;;;;;;7.65;5.78;;;25.80;54.50;;;;;;6094381;28;80678;-66
2021/08/02 05:38:46;;;;;;;8.45;4.75;;;25.80;54.70;;;;;;6091795;28;80545;-65
2021/08/02 05:41:47;;;;;;;9.82;5.88;;;25.80;54.70;;;;;;6092155;28;80657;-65
2021/08/02 05:44:47;;;;;;;13.05;6.15;;;25.80;54.80;;;;;;6091038;28;82310;-65
2021/08/02 05:47:48;;;;;;;12.93;5.47;;;25.90;55.20;;;;;;6104591;28;80819;-66
2021/08/02 05:50:48;;;;;;;8.48;5.90;;;25.90;55.40;;;;;;6100084;28;81206;-66
2021/08/02 05:53:49;;;;;;;13.57;6.50;;;25.90;55.50;;;;;;6092521;28;80408;-67
2021/08/02 05:56:49;;;;;;;10.77;6.20;;;25.90;56.10;;;;;;6090320;28;82343;-66
2021/08/02 05:59:50;;;;;;;13.68;7.20;;;25.90;56.50;;;;;;6089562;28;80757;-64
2021/08/02 06:02:50;;;;;;;9.85;6.47;;;25.90;56.10;;;;;;6090718;28;80338;-67
2021/08/02 06:05:51;;;;;;;10.55;5.97;;;25.90;56.70;;;;;;6097091;28;80842;-65
2021/08/02 06:08:51;;;;;;;10.10;5.07;;;25.90;57.20;;;;;;6090570;28;80245;-65
2021/08/02 06:11:52;;;;;;;10.70;5.20;;;26.00;57.40;;;;;;6089437;28;82702;-68
2021/08/02 06:14:52;;;;;;;6.47;4.10;;;25.90;57.40;;;;;;6091719;28;80344;-67
2021/08/02 06:17:53;;;;;;;12.32;4.50;;;26.00;56.90;;;;;;6091030;28;80502;-66
2021/08/02 06:20:53;;;;;;;5.25;4.03;;;26.00;57.00;;;;;;6091562;28;80920;-66
2021/08/02 06:23:54;;;;;;;8.02;4.38;;;26.00;57.10;;;;;;6089466;28;80991;-69
2021/08/02 06:26:54;;;;;;;7.20;4.03;;;26.00;57.50;;;;;;6089514;28;81627;-67
2021/08/02 06:29:55;;;;;;;6.20;4.05;;;26.00;57.00;;;;;;6096136;28;80459;-66
2021/08/02 06:32:55;;;;;;;5.80;3.53;;;26.00;56.60;;;;;;6089104;28;81652;-67
2021/08/02 06:35:56;;;;;;;7.10;3.80;;;26.00;56.50;;;;;;6089714;28;80302;-66
2021/08/02 06:38:56;;;;;;;5.90;3.45;;;26.10;56.50;;;;;;6091332;28;80359;-67
2021/08/02 06:41:57;;;;;;;7.75;3.47;;;26.10;56.30;;;;;;6089312;28;80599;-65
2021/08/02 06:44:57;;;;;;;8.02;3.03;;;26.10;56.20;;;;;;6091131;28;80639;-66
2021/08/02 06:47:58;;;;;;;6.43;3.20;;;26.10;55.70;;;;;;6091239;28;80536;-67
2021/08/02 06:50:58;;;;;;;7.65;3.00;;;26.00;55.80;;;;;;6093350;28;80088;-66
2021/08/02 06:53:59;;;;;;;4.20;3.00;;;26.00;55.40;;;;;;6091797;28;80626;-68
2021/08/02 06:56:59;;;;;;;4.55;2.95;;;26.10;55.20;;;;;;6088881;28;80641;-66
2021/08/02 07:00:00;;;;;;;3.28;2.92;;;26.00;55.20;;;;;;6093206;28;82961;-67
2021/08/02 07:03:01;;;;;;;7.65;3.00;;;26.10;55.50;;;;;;6086693;28;80629;-66
2021/08/02 07:06:01;;;;;;;8.23;3.05;;;26.10;55.20;;;;;;6091956;28;80457;-65
2021/08/02 07:09:02;;;;;;;4.22;3.10;;;26.10;54.90;;;;;;6090525;28;80654;-66
2021/08/02 07:12:02;;;;;;;8.02;2.17;;;26.10;54.70;;;;;;6089764;28;80299;-67
2021/08/02 07:15:03;;;;;;;3.50;2.72;;;26.10;54.30;;;;;;6088434;28;81798;-66
2021/08/02 07:18:03;;;;;;;9.18;2.65;;;26.00;54.10;;;;;;6090686;28;80412;-66
2021/08/02 07:21:04;;;;;;;8.68;2.70;;;26.00;54.40;;;;;;6089784;28;81948;-67
2021/08/02 07:24:04;;;;;;;4.10;2.45;;;26.10;54.50;;;;;;6088409;28;80990;-66
2021/08/02 07:27:05;;;;;;;7.60;2.65;;;26.00;54.40;;;;;;6088806;28;81508;-66
2021/08/02 07:30:05;;;;;;;6.15;2.50;;;26.00;54.40;;;;;;6092110;28;80480;-66
2021/08/02 07:33:06;;;;;;;7.15;2.47;;;26.10;54.50;;;;;;6087036;28;80656;-66
2021/08/02 07:36:07;;;;;;;5.47;2.83;;;26.00;54.10;;;;;;6088283;28;81728;-67
2021/08/02 07:39:08;;;;;;;7.47;2.50;;;26.00;54.30;;;;;;6087502;28;83786;-68
2021/08/02 07:42:08;;;;;;;5.50;2.17;;;26.00;54.00;;;;;;6098230;28;80953;-65
2021/08/02 07:45:09;;;;;;;3.10;2.15;;;26.10;54.00;;;;;;6088609;28;80417;-66
2021/08/02 07:48:09;;;;;;;3.28;2.20;;;26.00;53.80;;;;;;6087798;28;80660;-66
2021/08/02 07:51:10;;;;;;;9.20;2.38;;;26.10;53.80;;;;;;6088378;28;80356;-66
2021/08/02 07:54:11;;;;;;;2.97;2.35;;;26.00;53.90;;;;;;6089407;28;80339;-66
2021/08/02 07:57:11;;;;;;;3.47;2.08;;;26.00;53.80;;;;;;6087892;28;80164;-66
2021/08/02 08:00:16;;;;;;;11.55;2.63;;;25.90;54.10;;;;;;6091478;28;80310;-67
2021/08/02 08:03:19;;;;;;;5.47;2.75;;;26.00;53.90;;;;;;6094380;28;81781;-66
2021/08/02 08:06:19;;;;;;;7.95;2.88;;;25.90;53.80;;;;;;6087505;28;83320;-67
2021/08/02 08:09:20;;;;;;;5.10;2.25;;;25.90;53.80;;;;;;6089386;28;82030;-66
2021/08/02 08:12:20;;;;;;;7.03;2.95;;;25.90;53.40;;;;;;6089911;28;80145;-67
2021/08/02 08:15:21;;;;;;;6.85;3.13;;;26.00;53.30;;;;;;6087806;28;80928;-67
2021/08/02 08:18:21;;;;;;;3.03;2.30;;;26.00;53.20;;;;;;6087676;28;80339;-67
2021/08/02 08:21:22;;;;;;;5.18;2.22;;;26.00;53.20;;;;;;6091445;28;80909;-67
2021/08/02 08:24:22;;;;;;;3.75;2.42;;;26.00;53.20;;;;;;6096253;28;81012;-68
2021/08/02 08:27:23;;;;;;;3.65;2.30;;;25.90;52.90;;;;;;6099927;28;80495;-66
2021/08/02 08:30:23;;;;;;;4.35;2.63;;;25.90;53.00;;;;;;6094967;28;82557;-64
2021/08/02 08:33:27;;;;;;;5.18;2.55;;;25.90;53.00;;;;;;6090163;28;81484;-67
2021/08/02 08:36:27;;;;;;;5.13;2.20;;;25.90;53.00;;;;;;6092407;28;81378;-67
2021/08/02 08:39:28;;;;;;;2.40;2.20;;;25.90;52.70;;;;;;6093109;28;80849;-66
2021/08/02 08:42:28;;;;;;;3.72;2.83;;;25.90;52.70;;;;;;6091519;28;81249;-67
2021/08/02 08:45:29;;;;;;;3.85;2.70;;;25.90;52.80;;;;;;6090151;28;80532;-67
2021/08/02 08:48:29;;;;;;;4.38;2.35;;;25.90;52.80;;;;;;6084818;28;81476;-66
2021/08/02 08:51:30;;;;;;;7.90;3.00;;;25.90;52.70;;;;;;6088314;28;80705;-67
2021/08/02 08:54:31;;;;;;;6.05;2.55;;;25.90;52.50;;;;;;6087877;28;81219;-65
2021/08/02 08:57:31;;;;;;;4.28;2.75;;;25.90;52.90;;;;;;6092871;28;81843;-67
2021/08/02 09:00:32;;;;;;;7.30;3.17;;;25.90;53.00;;;;;;6089847;28;80622;-67
2021/08/02 09:03:32;;;;;;;3.53;2.90;;;25.90;53.10;;;;;;6084733;28;81571;-67
2021/08/02 09:06:33;;;;;;;3.38;2.70;;;26.00;52.90;;;;;;6087082;28;84771;-66
2021/08/02 09:09:34;;;;;;;4.15;2.88;;;26.00;52.60;;;;;;6089084;28;81150;-66
2021/08/02 09:12:34;;;;;;;5.20;3.35;;;26.00;52.60;;;;;;6087535;28;81604;-67
2021/08/02 09:15:35;;;;;;;4.55;3.40;;;26.00;52.30;;;;;;6088195;28;81967;-66
2021/08/02 09:18:36;;;;;;;4.57;2.90;;;26.00;52.70;;;;;;6087178;28;81488;-66
2021/08/02 09:21:36;;;;;;;3.28;2.97;;;26.00;52.40;;;;;;6088939;28;80479;-66
2021/08/02 09:24:37;;;;;;;2.92;2.63;;;26.00;52.40;;;;;;6086608;28;80411;-66
2021/08/02 09:27:37;;;;;;;3.15;2.67;;;26.00;52.50;;;;;;6087571;28;80778;-68
2021/08/02 09:30:38;;;;;;;4.22;2.70;;;26.10;52.50;;;;;;6088039;28;81512;-66
2021/08/02 09:33:38;;;;;;;11.75;3.00;;;26.10;52.20;;;;;;6088145;28;80889;-64
2021/08/02 09:36:39;;;;;;;5.47;2.80;;;26.10;54.90;;;;;;6090438;28;81426;-66
2021/08/02 09:39:39;;;;;;;4.50;3.25;;;26.10;53.80;;;;;;6096402;28;83911;-65
2021/08/02 09:42:40;;;;;;;6.85;3.00;;;26.20;53.40;;;;;;6085981;28;80594;-66
2021/08/02 09:45:40;;;;;;;3.40;3.00;;;26.20;53.60;;;;;;6085937;28;81855;-66
2021/08/02 09:48:41;;;;;;;6.22;3.40;;;26.20;53.20;;;;;;6085382;28;81637;-66
2021/08/02 09:51:42;;;;;;;5.30;2.80;;;26.20;52.90;;;;;;6087461;28;80587;-65
2021/08/02 09:54:42;;;;;;;5.88;3.28;;;26.20;53.10;;;;;;6087176;28;80972;-66
2021/08/02 09:57:43;;;;;;;6.30;3.00;;;26.30;53.20;;;;;;6088907;28;80581;-66
2021/08/02 10:00:43;;;;;;;4.65;3.80;;;26.30;52.90;;;;;;6085937;28;81439;-66
2021/08/02 10:03:44;;;;;;;3.92;3.38;;;26.30;52.90;;;;;;6087378;28;82494;-65
2021/08/02 10:06:44;;;;;;;5.55;3.88;;;26.40;52.80;;;;;;6088385;28;82416;-66
2021/08/02 10:09:45;;;;;;;8.45;3.70;;;26.30;52.90;;;;;;6094891;28;81397;-66
